createdAt,value
2022-10-01T00:00:13.391Z,8.52
2022-10-01T00:05:21.315Z,8.13
2022-10-01T00:07:48.833Z,7.55
2022-10-01T00:10:15.997Z,8.10
2022-10-01T00:12:47.858Z,7.78
2022-10-01T00:15:19.405Z,7.45
2022-10-01T00:17:45.879Z,7.00
2022-10-01T00:20:14.591Z,7.28
2022-10-01T00:22:41.508Z,7.57
2022-10-01T00:25:08.309Z,7.45
2022-10-01T00:27:35.861Z,7.20
2022-10-01T00:30:13.112Z,6.85
2022-10-01T00:38:05.475Z,6.40
2022-10-01T00:40:33.838Z,6.68
2022-10-01T00:43:00.323Z,6.10
2022-10-01T00:48:07.899Z,7.72
2022-10-01T00:50:35.147Z,7.35
2022-10-01T00:53:05.209Z,6.32
2022-10-01T00:55:36.230Z,6.40
2022-10-01T00:58:06.098Z,6.32
2022-10-01T01:00:32.803Z,6.57
2022-10-01T01:02:59.273Z,6.18
2022-10-01T01:08:06.345Z,6.03
2022-10-01T01:11:03.929Z,6.63
2022-10-01T01:13:38.207Z,5.78
2022-10-01T01:16:14.183Z,6.03
2022-10-01T01:19:01.178Z,6.15
2022-10-01T01:24:49.323Z,5.82
2022-10-01T01:27:41.111Z,6.53
2022-10-01T01:30:13.877Z,6.25
2022-10-01T01:32:57.300Z,5.05
2022-10-01T01:35:33.063Z,5.18
2022-10-01T01:38:03.605Z,5.15
2022-10-01T01:43:20.521Z,6.30
2022-10-01T01:45:49.688Z,5.72
2022-10-01T01:48:16.326Z,6.03
2022-10-01T01:50:49.855Z,6.93
2022-10-01T01:53:16.497Z,6.95
2022-10-01T01:58:28.455Z,7.50
2022-10-01T02:01:03.225Z,7.70
2022-10-01T02:03:30.059Z,7.90
2022-10-01T02:06:06.184Z,7.38
2022-10-01T02:08:42.652Z,7.50
2022-10-01T02:17:21.807Z,6.65
2022-10-01T02:20:03.841Z,6.30
2022-10-01T02:22:36.050Z,6.45
2022-10-01T02:25:04.500Z,6.75
2022-10-01T02:27:36.140Z,6.50
2022-10-01T02:30:19.625Z,5.93
2022-10-01T02:32:47.621Z,5.53
2022-10-01T02:35:20.919Z,5.30
2022-10-01T02:37:51.276Z,5.05
2022-10-01T02:40:21.008Z,4.63
2022-10-01T02:45:32.516Z,3.53
2022-10-01T02:48:04.383Z,3.50
2022-10-01T02:53:22.386Z,3.33
2022-10-01T02:55:57.943Z,3.08
2022-10-01T02:58:24.450Z,3.75
2022-10-01T03:03:40.269Z,3.70
2022-10-01T03:08:47.154Z,3.80
2022-10-01T03:11:22.602Z,4.13
2022-10-01T03:16:29.996Z,3.85
2022-10-01T03:18:56.490Z,3.88
2022-10-01T03:21:23.052Z,3.65
2022-10-01T03:23:49.510Z,3.30
2022-10-01T03:26:15.980Z,3.88
2022-10-01T03:28:42.499Z,3.85
2022-10-01T03:33:51.317Z,3.65
2022-10-01T03:38:58.540Z,3.03
2022-10-01T03:41:25.255Z,3.35
2022-10-01T03:43:55.069Z,3.28
2022-10-01T03:46:23.605Z,3.58
2022-10-01T03:48:50.619Z,3.00
2022-10-01T03:51:19.895Z,3.30
2022-10-01T03:53:47.926Z,3.47
2022-10-01T03:58:56.008Z,4.43
2022-10-01T04:01:22.621Z,3.60
2022-10-01T04:03:50.301Z,3.97
2022-10-01T04:06:20.936Z,4.30
2022-10-01T04:08:47.608Z,4.20
2022-10-01T04:11:14.429Z,3.50
2022-10-01T04:16:07.121Z,4.20
2022-10-01T04:18:34.558Z,4.30
2022-10-01T04:21:01.305Z,4.68
2022-10-01T04:23:35.402Z,5.00
2022-10-01T04:26:05.190Z,5.10
2022-10-01T04:28:32.143Z,5.18
2022-10-01T04:33:57.679Z,5.15
2022-10-01T04:39:05.564Z,4.50
2022-10-01T04:44:12.810Z,4.28
2022-10-01T04:46:39.923Z,4.88
2022-10-01T04:49:06.409Z,5.38
2022-10-01T04:54:25.664Z,5.15
2022-10-01T04:59:33.575Z,4.57
2022-10-01T05:02:00.119Z,4.55
2022-10-01T05:04:27.512Z,5.05
2022-10-01T05:06:54.016Z,5.28
2022-10-01T05:09:24.272Z,4.40
2022-10-01T05:11:52.040Z,5.22
2022-10-01T05:17:09.088Z,5.65
2022-10-01T05:19:35.582Z,5.55
2022-10-01T05:22:02.126Z,5.70
2022-10-01T05:24:29.256Z,5.85
2022-10-01T05:26:55.743Z,5.53
2022-10-01T05:29:22.278Z,5.63
2022-10-01T05:31:49.576Z,6.65
2022-10-01T05:34:16.192Z,5.30
2022-10-01T05:36:42.718Z,6.18
2022-10-01T05:39:09.732Z,5.65
2022-10-01T05:44:22.584Z,5.82
2022-10-01T05:46:49.342Z,6.25
2022-10-01T05:51:51.798Z,5.70
2022-10-01T05:56:58.673Z,5.55
2022-10-01T05:59:28.430Z,5.30
2022-10-01T06:01:57.719Z,5.10
2022-10-01T06:04:24.436Z,4.50
2022-10-01T06:06:50.994Z,3.70
2022-10-01T06:09:17.677Z,4.03
2022-10-01T06:11:44.142Z,4.22
2022-10-01T06:14:10.797Z,4.05
2022-10-01T06:22:15.086Z,3.20
2022-10-01T06:24:41.776Z,3.28
2022-10-01T06:27:08.314Z,3.55
2022-10-01T06:29:34.786Z,3.67
2022-10-01T06:34:42.075Z,4.38
2022-10-01T06:37:12.403Z,4.05
2022-10-01T06:39:38.944Z,3.42
2022-10-01T06:42:05.595Z,3.35
2022-10-01T06:44:40.061Z,3.03
2022-10-01T06:49:47.954Z,3.22
2022-10-01T06:55:16.611Z,3.00
2022-10-01T06:57:43.838Z,3.10
2022-10-01T07:00:11.403Z,3.78
2022-10-01T07:02:38.372Z,3.53
2022-10-01T07:05:13.466Z,3.92
2022-10-01T07:07:40.009Z,4.18
2022-10-01T07:10:09.290Z,3.33
2022-10-01T07:12:36.714Z,3.47
2022-10-01T07:15:05.801Z,4.57
2022-10-01T07:20:25.609Z,3.45
2022-10-01T07:25:51.117Z,3.25
2022-10-01T07:28:20.251Z,3.47
2022-10-01T07:31:12.048Z,3.92
2022-10-01T07:33:39.149Z,3.20
2022-10-01T07:36:08.797Z,3.58
2022-10-01T07:38:47.998Z,3.22
2022-10-01T07:41:16.848Z,3.00
2022-10-01T07:43:43.864Z,3.38
2022-10-01T07:46:10.629Z,2.92
2022-10-01T07:48:37.210Z,2.92
2022-10-01T07:51:03.892Z,2.65
2022-10-01T07:53:31.007Z,2.88
2022-10-01T07:58:43.366Z,2.83
2022-10-01T08:01:10.077Z,2.90
2022-10-01T08:06:24.570Z,2.20
2022-10-01T08:08:52.188Z,2.67
2022-10-01T08:11:18.722Z,2.50
2022-10-01T08:13:48.801Z,2.35
2022-10-01T08:16:15.329Z,2.40
2022-10-01T08:18:41.850Z,1.95
2022-10-01T08:21:09.019Z,1.98
2022-10-01T08:23:36.339Z,2.40
2022-10-01T08:26:07.842Z,2.22
2022-10-01T08:34:04.009Z,2.47
2022-10-01T08:36:30.851Z,2.45
2022-10-01T08:38:57.587Z,2.63
2022-10-01T08:41:39.591Z,2.72
2022-10-01T08:44:07.497Z,3.13
2022-10-01T08:46:36.432Z,2.83
2022-10-01T08:49:16.217Z,2.58
2022-10-01T08:52:10.834Z,2.75
2022-10-01T08:54:41.381Z,2.20
2022-10-01T08:57:30.290Z,2.58
2022-10-01T08:59:59.514Z,2.38
2022-10-01T09:02:29.169Z,3.10
2022-10-01T09:05:01.516Z,2.40
2022-10-01T09:08:15.204Z,2.92
2022-10-01T09:10:46.599Z,2.72
2022-10-01T09:13:16.027Z,2.25
2022-10-01T09:16:01.902Z,3.85
2022-10-01T09:18:40.320Z,2.70
2022-10-01T09:21:30.242Z,3.25
2022-10-01T09:26:48.908Z,2.25
2022-10-01T09:35:48.498Z,2.38
2022-10-01T09:38:36.897Z,2.85
2022-10-01T09:41:04.913Z,2.58
2022-10-01T09:43:36.929Z,2.72
2022-10-01T09:46:14.726Z,2.83
2022-10-01T09:48:44.740Z,2.78
2022-10-01T09:51:15.187Z,3.35
2022-10-01T09:53:47.020Z,2.58
2022-10-01T09:56:27.238Z,2.47
2022-10-01T09:58:55.334Z,2.45
2022-10-01T10:01:37.790Z,2.58
2022-10-01T10:04:04.731Z,1.98
2022-10-01T10:06:35.791Z,2.08
2022-10-01T10:11:43.161Z,2.35
2022-10-01T10:14:18.119Z,2.55
2022-10-01T10:19:24.199Z,2.63
2022-10-01T10:21:53.039Z,2.33
2022-10-01T10:24:26.441Z,2.33
2022-10-01T10:26:55.774Z,2.55
2022-10-01T10:38:01.573Z,2.53
2022-10-01T10:40:34.435Z,3.00
2022-10-01T10:45:43.911Z,2.92
2022-10-01T10:51:05.203Z,2.85
2022-10-01T10:53:47.382Z,2.35
2022-10-01T10:56:31.041Z,2.25
2022-10-01T10:59:08.236Z,1.85
2022-10-01T11:01:37.762Z,2.90
2022-10-01T11:04:38.839Z,2.35
2022-10-01T11:07:05.834Z,2.35
2022-10-01T11:09:58.657Z,2.05
2022-10-01T11:12:52.251Z,3.42
2022-10-01T11:16:07.381Z,2.35
2022-10-01T11:18:45.488Z,2.47
2022-10-01T11:21:46.763Z,2.13
2022-10-01T11:27:15.748Z,2.75
2022-10-01T11:33:12.239Z,2.63
2022-10-01T11:35:55.756Z,2.35
2022-10-01T11:38:43.252Z,2.80
2022-10-01T11:41:21.644Z,2.50
2022-10-01T11:46:53.554Z,2.47
2022-10-01T11:49:33.655Z,2.47
2022-10-01T11:55:35.002Z,2.20
2022-10-01T11:58:43.040Z,2.40
2022-10-01T12:07:38.484Z,2.03
2022-10-01T12:10:21.147Z,2.00
2022-10-01T12:12:54.360Z,2.33
2022-10-01T12:15:29.064Z,1.70
2022-10-01T12:18:01.591Z,2.45
2022-10-01T12:20:34.630Z,2.20
2022-10-01T12:23:03.238Z,2.95
2022-10-01T12:25:43.096Z,2.60
2022-10-01T12:28:24.072Z,3.13
2022-10-01T12:31:06.344Z,2.75
2022-10-01T12:36:42.818Z,2.28
2022-10-01T12:39:14.442Z,1.90
2022-10-01T12:41:50.833Z,2.38
2022-10-01T12:44:26.186Z,3.22
2022-10-01T12:47:03.809Z,2.78
2022-10-01T12:49:41.430Z,3.05
2022-10-01T12:52:33.765Z,2.33
2022-10-01T12:55:35.339Z,2.08
2022-10-01T12:58:01.776Z,2.20
2022-10-01T13:00:35.799Z,2.03
2022-10-01T13:06:21.820Z,3.55
2022-10-01T13:12:48.514Z,2.10
2022-10-01T13:15:21.561Z,2.47
2022-10-01T13:17:57.464Z,2.63
2022-10-01T13:20:27.907Z,2.67
2022-10-01T13:23:12.619Z,3.08
2022-10-01T13:28:37.387Z,2.78
2022-10-01T13:31:15.518Z,3.28
2022-10-01T13:33:43.172Z,2.83
2022-10-01T13:36:10.784Z,2.78
2022-10-01T13:38:46.946Z,2.42
2022-10-01T13:41:29.903Z,3.17
2022-10-01T13:47:08.229Z,2.53
2022-10-01T13:49:36.494Z,2.92
2022-10-01T13:52:04.772Z,2.55
2022-10-01T13:54:37.555Z,2.40
2022-10-01T13:57:21.042Z,2.90
2022-10-01T14:00:17.748Z,2.90
2022-10-01T14:03:04.805Z,2.40
2022-10-01T14:05:36.726Z,2.40
2022-10-01T14:08:14.639Z,2.65
2022-10-01T14:16:47.869Z,2.10
2022-10-01T14:19:19.973Z,2.72
2022-10-01T14:22:13.205Z,1.95
2022-10-01T14:24:49.106Z,2.17
2022-10-01T14:27:29.097Z,2.05
2022-10-01T14:30:15.928Z,2.72
2022-10-01T14:33:07.696Z,2.30
2022-10-01T14:35:45.375Z,2.00
2022-10-01T14:38:13.871Z,2.20
2022-10-01T14:40:43.919Z,2.35
2022-10-01T14:43:17.328Z,2.40
2022-10-01T14:45:57.517Z,2.80
2022-10-01T14:48:25.816Z,2.20
2022-10-01T14:50:55.438Z,2.17
2022-10-01T14:56:14.487Z,2.33
2022-10-01T14:58:52.578Z,1.85
2022-10-01T15:01:31.468Z,1.98
2022-10-01T15:03:58.196Z,2.30
2022-10-01T15:06:33.701Z,2.15
2022-10-01T15:09:12.040Z,2.40
2022-10-01T15:14:22.826Z,1.85
2022-10-01T15:16:49.706Z,1.80
2022-10-01T15:19:19.583Z,2.53
2022-10-01T15:21:57.407Z,2.03
2022-10-01T15:27:25.980Z,1.80
2022-10-01T15:30:02.135Z,2.47
2022-10-01T15:32:29.127Z,2.20
2022-10-01T15:37:40.425Z,2.03
2022-10-01T15:40:20.908Z,2.17
2022-10-01T15:43:07.606Z,2.35
2022-10-01T15:45:35.279Z,2.83
2022-10-01T15:50:43.421Z,2.15
2022-10-01T15:53:19.633Z,2.13
2022-10-01T15:55:50.320Z,2.45
2022-10-01T15:58:22.523Z,2.67
2022-10-01T16:01:09.367Z,2.70
2022-10-01T16:03:42.339Z,2.80
2022-10-01T16:06:18.475Z,4.80
2022-10-01T16:09:06.610Z,2.80
2022-10-01T16:12:02.385Z,5.47
2022-10-01T16:14:36.805Z,2.95
2022-10-01T16:17:23.012Z,3.20
2022-10-01T16:20:00.717Z,4.10
2022-10-01T16:22:37.502Z,2.17
2022-10-01T16:25:19.539Z,2.72
2022-10-01T16:28:05.961Z,2.58
2022-10-01T16:30:33.885Z,2.65
2022-10-01T16:33:04.441Z,2.40
2022-10-01T16:35:33.076Z,3.10
2022-10-01T16:37:59.616Z,2.85
2022-10-01T16:40:29.938Z,3.63
2022-10-01T16:42:57.923Z,4.10
2022-10-01T16:45:27.820Z,4.22
2022-10-01T16:47:58.397Z,3.42
2022-10-01T16:50:25.728Z,3.78
2022-10-01T16:52:53.601Z,4.07
2022-10-01T16:55:30.581Z,3.17
2022-10-01T16:57:57.198Z,3.50
2022-10-01T17:00:25.945Z,4.30
2022-10-01T17:02:53.698Z,3.55
2022-10-01T17:05:20.177Z,2.70
2022-10-01T17:07:46.885Z,3.33
2022-10-01T17:10:14.120Z,3.78
2022-10-01T17:12:41.240Z,4.70
2022-10-01T17:15:08.378Z,4.60
2022-10-01T17:17:35.407Z,9.43
2022-10-01T17:20:01.896Z,13.20
2022-10-01T17:22:28.450Z,7.50
2022-10-01T17:24:55.013Z,15.50
2022-10-01T17:27:21.739Z,3.60
2022-10-01T17:29:48.274Z,5.20
2022-10-01T17:32:18.662Z,7.85
2022-10-01T17:34:45.950Z,2.58
2022-10-01T17:37:12.962Z,2.72
2022-10-01T17:39:41.030Z,2.67
2022-10-01T17:42:07.635Z,2.90
2022-10-01T17:44:34.151Z,2.30
2022-10-01T17:47:00.652Z,2.38
2022-10-01T17:49:27.226Z,2.55
2022-10-01T17:51:53.796Z,2.53
2022-10-01T17:54:21.181Z,3.33
2022-10-01T17:56:48.761Z,2.85
2022-10-01T17:59:15.367Z,2.42
2022-10-01T18:01:41.932Z,2.25
2022-10-01T18:04:12.297Z,2.30
2022-10-01T18:06:39.737Z,3.38
2022-10-01T18:09:07.000Z,2.92
2022-10-01T18:11:33.766Z,3.05
2022-10-01T18:14:00.309Z,3.67
2022-10-01T18:16:27.502Z,3.22
2022-10-01T18:21:44.888Z,6.55
2022-10-01T18:24:11.367Z,4.50
2022-10-01T18:26:38.428Z,4.22
2022-10-01T18:29:05.293Z,5.18
2022-10-01T18:31:38.056Z,5.47
2022-10-01T18:34:15.821Z,6.38
2022-10-01T18:36:51.737Z,6.60
2022-10-01T18:39:40.845Z,9.07
2022-10-01T18:42:17.273Z,5.80
2022-10-01T18:44:43.732Z,5.75
2022-10-01T18:47:31.935Z,5.80
2022-10-01T18:50:04.620Z,5.93
2022-10-01T18:53:08.890Z,5.00
2022-10-01T18:56:00.114Z,4.55
2022-10-01T18:58:46.846Z,4.78
2022-10-01T19:01:13.377Z,4.30
2022-10-01T19:04:07.934Z,4.90
2022-10-01T19:06:41.198Z,4.10
2022-10-01T19:09:11.165Z,4.07
2022-10-01T19:11:50.354Z,4.07
2022-10-01T19:14:37.598Z,3.80
2022-10-01T19:17:25.656Z,3.92
2022-10-01T19:20:15.975Z,3.53
2022-10-01T19:23:13.164Z,3.53
2022-10-01T19:25:55.666Z,3.40
2022-10-01T19:28:28.378Z,4.13
2022-10-01T19:31:04.234Z,4.13
2022-10-01T19:33:33.686Z,4.15
2022-10-01T19:36:00.491Z,3.83
2022-10-01T19:38:35.538Z,3.50
2022-10-01T19:41:12.003Z,3.95
2022-10-01T19:43:49.594Z,4.03
2022-10-01T19:46:23.401Z,3.53
2022-10-01T19:48:57.134Z,4.18
2022-10-01T19:51:28.582Z,3.88
2022-10-01T19:54:01.060Z,3.88
2022-10-01T19:56:33.572Z,3.60
2022-10-01T19:59:26.833Z,4.00
2022-10-01T20:02:02.631Z,4.13
2022-10-01T20:04:48.029Z,3.40
2022-10-01T20:07:22.285Z,4.18
2022-10-01T20:10:05.709Z,3.83
2022-10-01T20:12:42.195Z,4.10
2022-10-01T20:15:35.537Z,4.43
2022-10-01T20:18:18.725Z,3.72
2022-10-01T20:20:48.305Z,4.30
2022-10-01T20:23:36.841Z,4.07
2022-10-01T20:26:11.991Z,4.78
2022-10-01T20:28:52.444Z,4.28
2022-10-01T20:31:43.313Z,4.75
2022-10-01T20:34:18.622Z,3.90
2022-10-01T20:39:32.686Z,4.60
2022-10-01T20:41:59.473Z,4.65
2022-10-01T20:44:35.512Z,4.35
2022-10-01T20:47:12.055Z,4.57
2022-10-01T20:50:09.856Z,4.97
2022-10-01T20:53:03.760Z,4.35
2022-10-01T20:55:40.647Z,3.92
2022-10-01T20:58:13.083Z,4.20
2022-10-01T21:00:42.022Z,3.28
2022-10-01T21:03:23.349Z,3.50
2022-10-01T21:06:06.329Z,4.00
2022-10-01T21:08:41.653Z,4.07
2022-10-01T21:11:14.937Z,4.32
2022-10-01T21:13:55.793Z,3.83
2022-10-01T21:16:34.892Z,5.00
2022-10-01T21:19:34.611Z,4.15
2022-10-01T21:22:32.356Z,4.47
2022-10-01T21:25:19.042Z,5.28
2022-10-01T21:28:05.159Z,5.15
2022-10-01T21:31:07.479Z,4.70
2022-10-01T21:33:38.769Z,3.55
2022-10-01T21:36:23.012Z,2.08
2022-10-01T21:39:20.868Z,2.50
2022-10-01T21:42:03.492Z,1.40
2022-10-01T21:44:38.939Z,1.90
2022-10-01T21:47:40.820Z,2.05
2022-10-01T21:50:48.903Z,2.13
2022-10-01T21:53:40.341Z,2.00
2022-10-01T21:56:39.293Z,2.17
2022-10-01T21:59:28.651Z,2.30
2022-10-01T22:02:04.527Z,2.03
2022-10-01T22:04:50.566Z,2.72
2022-10-01T22:07:19.969Z,3.08
2022-10-01T22:10:10.914Z,2.80
2022-10-01T22:12:40.521Z,3.72
2022-10-01T22:15:21.158Z,3.28
2022-10-01T22:17:49.954Z,3.17
2022-10-01T22:20:18.149Z,2.95
2022-10-01T22:22:45.766Z,2.70
2022-10-01T22:25:13.785Z,2.78
2022-10-01T22:27:59.367Z,3.60
2022-10-01T22:33:05.657Z,3.45
2022-10-01T22:35:43.250Z,3.28
2022-10-01T22:38:23.648Z,2.88
2022-10-01T22:40:55.565Z,3.90
2022-10-01T22:43:22.099Z,3.47
2022-10-01T22:46:00.999Z,3.40
2022-10-01T22:48:39.377Z,3.80
2022-10-01T22:51:56.608Z,4.22
2022-10-01T22:54:52.269Z,5.05
2022-10-01T22:57:37.954Z,5.15
2022-10-01T23:02:41.012Z,5.50
2022-10-01T23:05:11.057Z,4.78
2022-10-01T23:07:37.463Z,5.40
2022-10-01T23:10:10.805Z,6.35
2022-10-01T23:12:49.269Z,5.75
2022-10-01T23:15:24.564Z,4.97
2022-10-01T23:20:20.490Z,6.60
2022-10-01T23:22:46.942Z,5.75
2022-10-01T23:25:23.852Z,5.70
2022-10-01T23:27:53.539Z,5.53
2022-10-01T23:30:20.384Z,6.32
2022-10-01T23:33:05.669Z,6.32
2022-10-01T23:35:50.881Z,6.05
2022-10-01T23:38:32.578Z,5.55
2022-10-01T23:41:03.962Z,5.78
2022-10-01T23:43:39.038Z,6.65
2022-10-01T23:46:12.224Z,4.20
2022-10-01T23:48:48.453Z,5.07
2022-10-01T23:51:32.952Z,4.72
2022-10-01T23:54:05.400Z,4.43
2022-10-01T23:57:03.595Z,3.75
2022-10-01T23:59:36.161Z,4.03
